Time;durP1;ratioP1;P1;durP2;ratioP2;P2;SDS_P1;SDS_P2;PMS_P1;PMS_P2;Temp;Humidity;BMP_temperature;BMP_pressure;BME280_temperature;BME280_humidity;BME280_pressure;Samples;Min_cycle;Max_cycle;Signal;HPM_P1;HPM_P2
2023/05/06 00:00:29;;;;;;;5.80;1.60;;;14.40;99.90;;;;;;5037887;28;20029;-59
2023/05/06 00:02:58;;;;;;;4.43;1.65;;;14.50;99.90;;;;;;5038556;28;20116;-58
2023/05/06 00:05:26;;;;;;;4.15;1.40;;;14.70;99.90;;;;;;5042307;28;20014;-58
2023/05/06 00:07:54;;;;;;;4.90;2.15;;;14.80;99.90;;;;;;5026148;28;20033;-58
2023/05/06 00:10:22;;;;;;;4.57;1.17;;;14.90;99.90;;;;;;5044653;28;20373;-58
2023/05/06 00:12:49;;;;;;;5.85;2.83;;;15.00;99.90;;;;;;5029527;28;20095;-57
2023/05/06 00:15:17;;;;;;;5.75;1.60;;;15.20;99.90;;;;;;5040941;28;20105;-57
2023/05/06 00:17:44;;;;;;;3.83;1.55;;;15.40;99.90;;;;;;5043658;28;20036;-58
2023/05/06 00:20:13;;;;;;;4.90;1.77;;;15.60;99.90;;;;;;5033469;28;20022;-60
2023/05/06 00:22:41;;;;;;;5.68;1.60;;;15.70;99.90;;;;;;5026190;28;20532;-56
2023/05/06 00:25:09;;;;;;;3.10;1.63;;;15.90;99.90;;;;;;5043172;28;20034;-58
2023/05/06 00:27:36;;;;;;;4.55;1.42;;;16.00;99.90;;;;;;5046592;28;20028;-54
2023/05/06 00:30:04;;;;;;;5.28;1.55;;;16.30;99.90;;;;;;5035699;28;20036;-59
2023/05/06 00:32:31;;;;;;;4.45;1.55;;;16.40;99.90;;;;;;5037683;28;20056;-57
2023/05/06 00:34:59;;;;;;;5.53;1.50;;;16.60;99.90;;;;;;5037627;28;20018;-57
2023/05/06 00:37:26;;;;;;;4.75;1.85;;;16.80;99.90;;;;;;5043172;28;20242;-55
2023/05/06 00:39:54;;;;;;;4.13;1.45;;;16.80;99.90;;;;;;5042602;28;20017;-53
2023/05/06 00:42:22;;;;;;;5.22;1.50;;;17.00;99.90;;;;;;5043606;28;20040;-62
2023/05/06 00:44:50;;;;;;;2.85;1.40;;;17.10;99.90;;;;;;5040240;28;20025;-62
2023/05/06 00:47:18;;;;;;;5.13;1.55;;;17.10;99.90;;;;;;5045476;28;20037;-63
2023/05/06 00:49:47;;;;;;;3.72;1.58;;;17.20;99.90;;;;;;5052372;28;20059;-63
2023/05/06 00:52:15;;;;;;;4.03;1.40;;;17.30;99.90;;;;;;5052018;28;20104;-62
2023/05/06 00:54:42;;;;;;;4.20;1.33;;;17.40;99.90;;;;;;5020519;28;20059;-62
2023/05/06 00:57:10;;;;;;;2.70;1.33;;;17.50;99.90;;;;;;5046038;28;20067;-62
2023/05/06 00:59:38;;;;;;;4.03;1.40;;;17.40;99.90;;;;;;5040651;28;20056;-62
2023/05/06 01:02:06;;;;;;;3.75;1.27;;;17.50;99.90;;;;;;5040426;28;20024;-67
2023/05/06 01:04:34;;;;;;;2.15;1.23;;;17.70;99.90;;;;;;5032383;28;20544;-64
2023/05/06 01:07:35;;;;;;;5.63;1.58;;;17.70;99.90;;;;;;5038788;28;20507;-64
2023/05/06 01:10:19;;;;;;;3.63;1.30;;;17.80;99.90;;;;;;5031120;28;20098;-63
2023/05/06 01:13:08;;;;;;;5.28;1.95;;;17.90;99.90;;;;;;5044277;28;20479;-63
2023/05/06 01:15:46;;;;;;;3.90;1.30;;;18.10;99.90;;;;;;5043620;28;20469;-63
2023/05/06 01:18:22;;;;;;;4.22;1.50;;;18.20;98.40;;;;;;5042576;28;20060;-65
2023/05/06 01:20:52;;;;;;;7.38;2.08;;;18.30;96.10;;;;;;5046918;28;20039;-67
2023/05/06 01:23:20;;;;;;;2.75;1.15;;;18.40;97.30;;;;;;5041502;28;20410;-66
2023/05/06 01:25:48;;;;;;;4.05;1.52;;;18.40;94.60;;;;;;5045576;28;20021;-68
2023/05/06 01:28:15;;;;;;;5.85;1.60;;;18.50;98.00;;;;;;5044409;28;20121;-68
2023/05/06 01:30:57;;;;;;;4.10;1.40;;;18.60;94.90;;;;;;5034504;28;20033;-66
2023/05/06 01:33:50;;;;;;;2.85;1.45;;;18.70;93.70;;;;;;5034295;28;20041;-65
2023/05/06 01:36:40;;;;;;;7.97;3.22;;;18.70;90.20;;;;;;5031999;28;20506;-66
2023/05/06 01:39:24;;;;;;;4.75;1.38;;;18.70;90.00;;;;;;5033106;28;20489;-67
2023/05/06 01:41:54;;;;;;;6.15;1.60;;;18.90;89.20;;;;;;5046685;28;20059;-66
2023/05/06 01:44:23;;;;;;;7.07;1.80;;;18.90;86.40;;;;;;5040466;28;20072;-65
2023/05/06 01:46:53;;;;;;;4.68;1.55;;;18.90;82.40;;;;;;5038296;28;20763;-66
2023/05/06 01:49:23;;;;;;;5.18;1.98;;;18.90;84.90;;;;;;5040315;28;20485;-67
2023/05/06 01:51:52;;;;;;;5.25;1.65;;;19.10;90.90;;;;;;5039939;28;20087;-67
2023/05/06 01:54:19;;;;;;;7.78;2.00;;;19.20;85.80;;;;;;5046351;28;20075;-67
2023/05/06 01:56:47;;;;;;;7.72;1.48;;;19.30;87.50;;;;;;5049272;28;20025;-67
2023/05/06 01:59:14;;;;;;;6.22;1.58;;;19.40;87.60;;;;;;5042450;28;20048;-66
2023/05/06 02:01:42;;;;;;;4.30;1.33;;;19.50;84.10;;;;;;5043363;28;20025;-67
2023/05/06 02:04:09;;;;;;;4.00;1.65;;;19.60;86.40;;;;;;5038833;28;20060;-68
2023/05/06 02:06:36;;;;;;;4.35;1.38;;;19.70;84.40;;;;;;5026536;28;20040;-65
2023/05/06 02:09:04;;;;;;;6.40;1.40;;;19.80;84.30;;;;;;5038321;28;20732;-70
2023/05/06 02:11:31;;;;;;;3.67;1.23;;;19.90;82.50;;;;;;5041707;28;20076;-67
2023/05/06 02:14:00;;;;;;;6.28;1.63;;;19.90;79.90;;;;;;5037194;28;20466;-67
2023/05/06 02:16:30;;;;;;;5.82;1.50;;;20.00;75.80;;;;;;5040665;28;20025;-66
2023/05/06 02:18:58;;;;;;;1.50;0.93;;;20.00;73.40;;;;;;5046515;28;20363;-66
2023/05/06 02:21:26;;;;;;;3.22;1.45;;;19.90;74.40;;;;;;5032728;28;20021;-67
2023/05/06 02:23:54;;;;;;;4.28;1.40;;;20.10;78.60;;;;;;5031862;28;20071;-63
2023/05/06 02:26:21;;;;;;;3.17;1.17;;;20.10;77.70;;;;;;5043473;28;20029;-64
2023/05/06 02:28:49;;;;;;;2.88;1.02;;;20.10;77.70;;;;;;5029077;28;20491;-65
2023/05/06 02:31:16;;;;;;;3.70;1.50;;;20.00;70.30;;;;;;5046643;28;20033;-65
2023/05/06 02:33:45;;;;;;;2.78;1.70;;;20.00;73.90;;;;;;5027996;28;20393;-65
2023/05/06 02:36:13;;;;;;;3.28;1.40;;;20.00;72.60;;;;;;5025889;28;20034;-65
2023/05/06 02:38:40;;;;;;;2.30;1.00;;;20.00;71.50;;;;;;5042124;28;20159;-63
2023/05/06 02:41:08;;;;;;;8.25;1.25;;;20.10;72.70;;;;;;5047316;28;20033;-66
2023/05/06 02:43:35;;;;;;;3.97;1.38;;;20.20;71.80;;;;;;5037396;28;20547;-66
2023/05/06 02:46:02;;;;;;;3.03;1.00;;;20.30;70.90;;;;;;5048933;28;20478;-66
2023/05/06 02:48:30;;;;;;;5.93;1.55;;;20.30;69.40;;;;;;5040393;28;20064;-66
2023/05/06 02:50:58;;;;;;;4.47;1.23;;;20.30;70.70;;;;;;5042472;28;20028;-66
2023/05/06 02:53:26;;;;;;;2.70;0.93;;;20.40;69.70;;;;;;5012121;28;20489;-65
2023/05/06 02:55:53;;;;;;;2.38;0.93;;;20.30;68.70;;;;;;5038247;28;20029;-66
2023/05/06 02:58:21;;;;;;;2.83;1.08;;;20.40;71.70;;;;;;5048701;28;20035;-66
2023/05/06 03:00:48;;;;;;;4.70;1.27;;;20.40;69.00;;;;;;5037859;28;20034;-66
2023/05/06 03:03:17;;;;;;;4.07;1.10;;;20.40;70.20;;;;;;5034211;28;20029;-65
2023/05/06 03:05:44;;;;;;;2.10;0.95;;;20.50;69.70;;;;;;5048537;28;20028;-65
2023/05/06 03:08:12;;;;;;;4.10;1.38;;;20.60;70.80;;;;;;5027695;28;20022;-65
2023/05/06 03:10:39;;;;;;;5.30;1.45;;;20.70;71.40;;;;;;5045121;28;20390;-63
2023/05/06 03:13:07;;;;;;;3.78;1.10;;;20.80;70.30;;;;;;5050136;28;20108;-62
2023/05/06 03:15:34;;;;;;;2.47;1.10;;;20.80;66.80;;;;;;5044787;28;20025;-63
2023/05/06 03:18:02;;;;;;;5.38;1.00;;;20.70;65.80;;;;;;5036201;28;20619;-63
2023/05/06 03:20:29;;;;;;;5.22;1.48;;;20.70;64.90;;;;;;5033721;28;20029;-62
2023/05/06 03:22:56;;;;;;;3.20;0.95;;;20.60;66.40;;;;;;5029591;28;20041;-62
2023/05/06 03:25:24;;;;;;;2.33;1.00;;;20.60;66.40;;;;;;5033745;28;20456;-62
2023/05/06 03:27:51;;;;;;;1.90;0.90;;;20.70;69.00;;;;;;5030974;28;20033;-62
2023/05/06 03:30:19;;;;;;;3.10;0.82;;;20.70;68.80;;;;;;5042701;28;20017;-62
2023/05/06 03:32:47;;;;;;;1.90;1.00;;;20.70;66.00;;;;;;5047852;28;20061;-62
2023/05/06 03:35:15;;;;;;;2.13;1.13;;;20.60;63.90;;;;;;5046098;28;20036;-61
2023/05/06 03:37:43;;;;;;;3.58;0.88;;;20.50;64.80;;;;;;5049463;28;20382;-62
2023/05/06 03:40:10;;;;;;;3.05;1.00;;;20.50;67.10;;;;;;5049993;28;20025;-61
2023/05/06 03:42:38;;;;;;;3.08;1.13;;;20.50;65.60;;;;;;5031766;28;20037;-62
2023/05/06 03:45:06;;;;;;;1.75;0.93;;;20.50;66.40;;;;;;5031710;28;20108;-62
2023/05/06 03:47:34;;;;;;;4.18;1.10;;;20.50;65.40;;;;;;5034285;28;20049;-61
2023/05/06 03:50:02;;;;;;;2.20;1.00;;;20.60;67.40;;;;;;5035317;28;20506;-61
2023/05/06 03:52:30;;;;;;;4.30;1.38;;;20.70;68.20;;;;;;5027734;28;20088;-60
2023/05/06 03:54:57;;;;;;;3.35;1.08;;;20.70;66.20;;;;;;5027061;28;20414;-60
2023/05/06 03:57:25;;;;;;;2.25;1.00;;;20.80;63.80;;;;;;5034996;28;20042;-60
2023/05/06 03:59:52;;;;;;;7.07;1.25;;;20.80;67.50;;;;;;5038658;28;20075;-60
2023/05/06 04:02:19;;;;;;;2.78;0.90;;;20.80;67.30;;;;;;5029934;28;20131;-60
2023/05/06 04:04:47;;;;;;;4.63;1.20;;;20.90;67.60;;;;;;5036197;28;20025;-60
2023/05/06 04:07:14;;;;;;;5.40;1.25;;;20.90;66.80;;;;;;5040521;28;20124;-60
2023/05/06 04:09:42;;;;;;;2.10;0.90;;;21.00;67.00;;;;;;5045351;28;20036;-59
2023/05/06 04:12:09;;;;;;;2.92;0.93;;;20.90;65.90;;;;;;5032025;28;20055;-60
2023/05/06 04:14:37;;;;;;;2.20;0.77;;;20.90;65.50;;;;;;5049102;28;20355;-60
2023/05/06 04:17:04;;;;;;;5.35;1.05;;;21.00;66.40;;;;;;5049014;28;20029;-60
2023/05/06 04:19:32;;;;;;;2.72;1.13;;;21.00;65.00;;;;;;5046760;28;20029;-60
2023/05/06 04:21:59;;;;;;;8.13;1.95;;;20.90;65.30;;;;;;5041125;28;20029;-60
2023/05/06 04:24:30;;;;;;;8.55;1.10;;;20.80;65.70;;;;;;5050626;28;20082;-61
2023/05/06 04:26:58;;;;;;;2.53;1.00;;;20.70;64.50;;;;;;5049488;28;20025;-61
2023/05/06 04:29:25;;;;;;;3.47;1.13;;;20.70;64.30;;;;;;5052663;28;20393;-62
2023/05/06 04:31:54;;;;;;;3.22;1.10;;;20.70;65.00;;;;;;5052698;28;20470;-62
2023/05/06 04:34:23;;;;;;;3.45;1.00;;;20.60;65.20;;;;;;5040521;28;20563;-59
2023/05/06 04:36:53;;;;;;;3.20;1.02;;;20.60;65.40;;;;;;5015003;28;20032;-59
2023/05/06 04:39:20;;;;;;;2.58;0.90;;;20.40;64.80;;;;;;5032967;28;20031;-62
2023/05/06 04:41:48;;;;;;;5.13;1.10;;;20.40;64.50;;;;;;5038162;28;20033;-62
2023/05/06 04:44:15;;;;;;;1.67;0.75;;;20.30;65.40;;;;;;5021856;28;20486;-60
2023/05/06 04:46:43;;;;;;;3.53;1.00;;;20.30;66.20;;;;;;5032749;28;20108;-62
2023/05/06 04:49:10;;;;;;;3.08;0.90;;;20.30;68.40;;;;;;5034151;28;20033;-59
2023/05/06 04:51:41;;;;;;;4.32;1.13;;;20.30;67.50;;;;;;5036629;28;20025;-60
2023/05/06 04:54:08;;;;;;;2.95;1.38;;;20.30;67.20;;;;;;5052886;28;20029;-60
2023/05/06 04:56:36;;;;;;;2.60;0.75;;;20.30;67.50;;;;;;5029537;28;20397;-61
2023/05/06 04:59:03;;;;;;;4.13;1.13;;;20.20;68.20;;;;;;5043529;28;20660;-60
2023/05/06 05:01:31;;;;;;;2.70;0.85;;;20.20;67.90;;;;;;5036966;28;20460;-60
2023/05/06 05:03:58;;;;;;;2.60;0.77;;;20.10;70.20;;;;;;5036185;28;20121;-60
2023/05/06 05:06:25;;;;;;;2.63;1.02;;;20.10;69.70;;;;;;5012403;28;20430;-61
2023/05/06 05:08:53;;;;;;;2.17;0.90;;;20.00;68.60;;;;;;5034611;28;20029;-61
2023/05/06 05:11:20;;;;;;;3.00;0.90;;;20.00;67.90;;;;;;5049017;28;20025;-61
2023/05/06 05:13:48;;;;;;;3.60;0.80;;;19.90;69.30;;;;;;5039762;28;20518;-62
2023/05/06 05:16:15;;;;;;;4.20;0.85;;;19.90;68.90;;;;;;5025607;28;20478;-61
2023/05/06 05:18:43;;;;;;;1.73;0.68;;;19.80;68.60;;;;;;5041731;28;20037;-61
2023/05/06 05:21:13;;;;;;;4.93;1.30;;;19.80;70.10;;;;;;5033121;28;20454;-60
2023/05/06 05:23:41;;;;;;;4.80;1.55;;;19.70;69.60;;;;;;5049266;28;20041;-61
2023/05/06 05:26:09;;;;;;;1.85;0.95;;;19.70;70.80;;;;;;5049025;28;20634;-60
2023/05/06 05:28:36;;;;;;;2.50;1.00;;;19.70;69.00;;;;;;5049248;28;20025;-60
2023/05/06 05:31:05;;;;;;;4.15;0.80;;;19.60;68.60;;;;;;5047979;28;20556;-60
2023/05/06 05:33:32;;;;;;;3.20;1.20;;;19.50;69.40;;;;;;5041814;28;20434;-60
2023/05/06 05:36:00;;;;;;;4.22;1.33;;;19.50;69.70;;;;;;5021094;28;20036;-60
2023/05/06 05:38:27;;;;;;;4.80;1.17;;;19.40;69.10;;;;;;5029255;28;20065;-60
2023/05/06 05:40:54;;;;;;;3.58;1.20;;;19.40;71.10;;;;;;5026531;28;20059;-60
2023/05/06 05:43:24;;;;;;;3.03;0.80;;;19.40;72.30;;;;;;5030023;28;20047;-60
2023/05/06 05:45:52;;;;;;;4.40;1.33;;;19.40;72.50;;;;;;5035165;28;20033;-60
2023/05/06 05:48:19;;;;;;;2.85;1.45;;;19.30;71.70;;;;;;5043205;28;20064;-60
2023/05/06 05:50:47;;;;;;;3.55;0.90;;;19.30;73.20;;;;;;5040115;28;20075;-54
2023/05/06 05:53:15;;;;;;;0.95;0.50;;;19.40;74.40;;;;;;5048195;28;20132;-63
2023/05/06 05:55:42;;;;;;;2.97;0.80;;;19.40;72.50;;;;;;5043668;28;20079;-57
2023/05/06 05:58:10;;;;;;;2.75;1.23;;;19.40;72.90;;;;;;5047200;28;20090;-57
2023/05/06 06:00:38;;;;;;;2.10;0.80;;;19.40;72.40;;;;;;5051172;28;20470;-56
2023/05/06 06:03:05;;;;;;;1.90;0.93;;;19.30;71.50;;;;;;5046540;28;20120;-56
2023/05/06 06:05:33;;;;;;;5.18;1.02;;;19.30;72.40;;;;;;5034137;28;20014;-55
2023/05/06 06:08:00;;;;;;;3.47;1.13;;;19.20;73.40;;;;;;5044274;28;20065;-58
2023/05/06 06:10:27;;;;;;;3.10;1.27;;;19.20;72.90;;;;;;5036321;28;20025;-57
2023/05/06 06:12:55;;;;;;;2.60;0.68;;;19.10;71.90;;;;;;5044849;28;20029;-57
2023/05/06 06:15:22;;;;;;;5.15;1.85;;;19.00;72.40;;;;;;5034656;28;20029;-56
2023/05/06 06:17:52;;;;;;;2.45;0.93;;;18.90;72.20;;;;;;5050808;28;20032;-55
2023/05/06 06:20:20;;;;;;;4.10;1.42;;;18.80;72.70;;;;;;5018960;28;20493;-57
2023/05/06 06:22:47;;;;;;;4.53;1.05;;;18.70;74.20;;;;;;5046658;28;20051;-58
2023/05/06 06:25:15;;;;;;;2.80;1.08;;;18.60;74.00;;;;;;5043778;28;20061;-59
2023/05/06 06:27:42;;;;;;;7.95;1.13;;;18.50;74.60;;;;;;5043642;28;20030;-55
2023/05/06 06:30:10;;;;;;;3.28;1.13;;;18.40;75.70;;;;;;5039528;28;20120;-56
2023/05/06 06:32:48;;;;;;;6.88;1.00;;;18.30;77.00;;;;;;5040577;28;20025;-56
2023/05/06 06:35:15;;;;;;;4.07;1.23;;;18.20;75.90;;;;;;5042131;28;20432;-57
2023/05/06 06:37:43;;;;;;;1.90;1.00;;;18.00;76.90;;;;;;5049948;28;20043;-56
2023/05/06 06:40:11;;;;;;;2.13;1.00;;;17.90;78.40;;;;;;5043192;28;20029;-55
2023/05/06 06:42:39;;;;;;;2.63;0.90;;;17.90;79.80;;;;;;5030686;28;20076;-56
2023/05/06 06:45:09;;;;;;;3.13;0.95;;;17.80;81.00;;;;;;5029651;28;20654;-55
2023/05/06 06:47:37;;;;;;;2.40;0.98;;;17.60;82.60;;;;;;5030088;28;20073;-54
2023/05/06 06:50:05;;;;;;;3.42;1.10;;;17.40;84.40;;;;;;5028937;28;20057;-56
2023/05/06 06:52:34;;;;;;;2.55;1.05;;;17.20;85.90;;;;;;5039766;28;20453;-56
2023/05/06 06:55:02;;;;;;;3.25;1.38;;;17.00;85.30;;;;;;5049033;28;20520;-53
2023/05/06 06:57:29;;;;;;;1.95;0.82;;;16.80;89.50;;;;;;5048202;28;20036;-55
2023/05/06 06:59:56;;;;;;;2.70;1.13;;;16.70;91.90;;;;;;5048080;28;20395;-55
2023/05/06 07:02:24;;;;;;;2.08;0.88;;;16.60;92.70;;;;;;5049922;28;20033;-57
2023/05/06 07:04:52;;;;;;;4.50;1.35;;;16.40;93.50;;;;;;5030606;28;20025;-57
2023/05/06 07:07:20;;;;;;;4.35;1.10;;;16.20;95.20;;;;;;5050138;28;20108;-59
2023/05/06 07:09:47;;;;;;;5.18;1.17;;;16.10;96.30;;;;;;5049842;28;20017;-58
2023/05/06 07:12:15;;;;;;;4.20;1.23;;;16.00;97.30;;;;;;5044653;28;20018;-61
2023/05/06 07:14:42;;;;;;;1.88;1.10;;;15.90;98.10;;;;;;5044119;28;20029;-58
2023/05/06 07:17:10;;;;;;;4.47;1.02;;;15.90;99.00;;;;;;5045910;28;20060;-59
2023/05/06 07:19:37;;;;;;;3.17;0.80;;;15.80;99.80;;;;;;5047742;28;20028;-58
2023/05/06 07:22:05;;;;;;;2.28;1.05;;;15.70;99.90;;;;;;5048380;28;20151;-59
2023/05/06 07:24:32;;;;;;;7.75;1.38;;;15.60;99.90;;;;;;5049381;28;20021;-59
2023/05/06 07:27:01;;;;;;;7.25;1.70;;;15.60;99.90;;;;;;5016013;28;20036;-59
2023/05/06 07:29:28;;;;;;;3.90;1.80;;;15.50;99.90;;;;;;5039063;28;20029;-59
2023/05/06 07:31:56;;;;;;;4.82;1.52;;;15.30;99.90;;;;;;5048617;28;20100;-59
2023/05/06 07:34:23;;;;;;;4.43;1.45;;;15.30;99.90;;;;;;5047640;28;20680;-59
2023/05/06 07:36:51;;;;;;;5.75;1.58;;;15.20;99.90;;;;;;5047504;28;20021;-59
2023/05/06 07:39:18;;;;;;;5.53;2.13;;;15.10;99.90;;;;;;5028430;28;20673;-59
2023/05/06 07:41:46;;;;;;;7.22;2.17;;;15.10;99.90;;;;;;5027596;28;20028;-59
2023/05/06 07:44:13;;;;;;;7.03;2.35;;;15.10;99.90;;;;;;5028026;28;20038;-59
2023/05/06 07:46:40;;;;;;;7.78;3.05;;;15.10;99.90;;;;;;5028314;28;20025;-59
2023/05/06 07:49:08;;;;;;;5.78;1.98;;;15.10;99.90;;;;;;5031135;28;20091;-58
2023/05/06 07:51:36;;;;;;;7.40;2.30;;;15.20;99.90;;;;;;5049219;28;20028;-59
2023/05/06 07:54:03;;;;;;;5.47;1.52;;;15.50;99.90;;;;;;5049378;28;20103;-60
2023/05/06 07:56:30;;;;;;;5.15;1.85;;;15.50;99.90;;;;;;5052736;28;20032;-59
2023/05/06 07:58:58;;;;;;;4.85;1.73;;;15.50;99.90;;;;;;5055907;28;20071;-59
2023/05/06 08:01:28;;;;;;;5.75;1.30;;;15.50;99.90;;;;;;5051676;28;20433;-59
2023/05/06 08:03:55;;;;;;;5.88;2.00;;;15.60;99.90;;;;;;5050234;28;20037;-58
2023/05/06 08:06:23;;;;;;;4.90;2.00;;;15.70;99.90;;;;;;5055896;28;20063;-59
2023/05/06 08:08:50;;;;;;;9.27;2.08;;;15.60;99.90;;;;;;5055955;28;20031;-59
2023/05/06 08:11:18;;;;;;;5.30;1.50;;;15.50;99.90;;;;;;5055948;28;20537;-59
2023/05/06 08:13:46;;;;;;;5.28;1.50;;;15.30;99.90;;;;;;5043077;28;20056;-59
2023/05/06 08:16:13;;;;;;;6.80;1.90;;;15.30;99.90;;;;;;5036414;28;20040;-59
2023/05/06 08:18:41;;;;;;;5.57;1.50;;;15.30;99.90;;;;;;5036292;28;20026;-59
2023/05/06 08:21:08;;;;;;;8.23;1.88;;;15.30;99.90;;;;;;5035913;28;20037;-59
2023/05/06 08:23:36;;;;;;;6.30;1.90;;;15.30;99.90;;;;;;5035727;28;20386;-59
2023/05/06 08:26:04;;;;;;;5.22;1.60;;;15.20;99.90;;;;;;5047917;28;20033;-59
2023/05/06 08:28:31;;;;;;;4.10;1.63;;;15.10;99.90;;;;;;5055766;28;20036;-59
2023/05/06 08:30:59;;;;;;;7.63;2.00;;;14.90;99.90;;;;;;5055690;28;20044;-59
2023/05/06 08:33:26;;;;;;;3.38;1.55;;;14.80;99.90;;;;;;5055427;28;20457;-59
2023/05/06 08:35:56;;;;;;;4.47;2.00;;;14.70;99.90;;;;;;5037613;28;20029;-59
2023/05/06 08:38:24;;;;;;;5.18;1.70;;;14.50;99.90;;;;;;5040565;28;20030;-59
2023/05/06 08:40:53;;;;;;;3.90;1.73;;;14.30;99.90;;;;;;5017715;28;20112;-59
2023/05/06 08:43:25;;;;;;;5.15;2.10;;;14.10;99.90;;;;;;5017733;28;20033;-59
2023/05/06 08:45:53;;;;;;;8.02;2.40;;;14.00;99.90;;;;;;5042571;28;20104;-58
2023/05/06 08:48:21;;;;;;;5.78;1.90;;;13.80;99.90;;;;;;5055242;28;20045;-58
2023/05/06 08:50:50;;;;;;;8.40;2.05;;;13.70;99.90;;;;;;5055634;28;20108;-59
2023/05/06 08:53:18;;;;;;;9.65;2.47;;;13.50;99.90;;;;;;5055557;28;20478;-59
2023/05/06 08:55:48;;;;;;;8.73;2.30;;;13.40;99.90;;;;;;5048965;28;20021;-60
2023/05/06 08:58:17;;;;;;;6.45;2.28;;;13.40;99.90;;;;;;5047457;28;20032;-60
2023/05/06 09:00:45;;;;;;;11.38;2.53;;;13.40;99.90;;;;;;5055941;28;20032;-59
2023/05/06 09:03:12;;;;;;;7.63;3.20;;;13.40;99.90;;;;;;5055627;28;20430;-58
2023/05/06 09:05:40;;;;;;;5.85;2.35;;;13.30;99.90;;;;;;5055333;28;20017;-59
2023/05/06 09:08:07;;;;;;;10.63;2.53;;;13.20;99.90;;;;;;5043974;28;20030;-58
2023/05/06 09:10:47;;;;;;;6.80;2.10;;;13.10;99.90;;;;;;5014502;28;20075;-58
2023/05/06 09:13:17;;;;;;;8.25;3.47;;;13.00;99.90;;;;;;5032690;28;20021;-58
2023/05/06 09:15:48;;;;;;;4.45;2.53;;;13.00;99.90;;;;;;5032559;28;20036;-58
2023/05/06 09:18:16;;;;;;;7.55;2.28;;;12.90;99.90;;;;;;5014516;28;20044;-62
2023/05/06 09:20:49;;;;;;;10.27;3.65;;;13.00;99.90;;;;;;5043494;28;20032;-59
2023/05/06 09:23:17;;;;;;;9.02;2.40;;;12.90;99.90;;;;;;5032948;28;20506;-60
2023/05/06 09:25:48;;;;;;;6.88;2.70;;;12.90;99.90;;;;;;5052248;28;20390;-59
2023/05/06 09:28:15;;;;;;;7.18;2.42;;;13.00;99.90;;;;;;5052460;28;20029;-58
2023/05/06 09:30:46;;;;;;;10.20;2.67;;;12.90;99.90;;;;;;5052149;28;20066;-58
2023/05/06 09:33:14;;;;;;;6.88;2.55;;;12.80;99.90;;;;;;5039891;28;20025;-59
2023/05/06 09:35:43;;;;;;;4.03;2.10;;;12.70;99.90;;;;;;5032338;28;20037;-59
2023/05/06 09:38:10;;;;;;;6.10;2.67;;;12.60;99.90;;;;;;5014005;28;20120;-58
2023/05/06 09:40:38;;;;;;;6.28;2.30;;;12.40;99.90;;;;;;5031822;28;20097;-58
2023/05/06 09:43:07;;;;;;;9.18;2.30;;;12.30;99.90;;;;;;5031576;28;20033;-58
2023/05/06 09:45:35;;;;;;;11.55;3.03;;;12.20;99.90;;;;;;5044710;28;20032;-58
2023/05/06 09:48:03;;;;;;;6.57;2.55;;;12.10;99.90;;;;;;5050815;28;20098;-59
2023/05/06 09:50:33;;;;;;;9.70;2.97;;;12.00;99.90;;;;;;5051558;28;20020;-59
2023/05/06 09:53:02;;;;;;;6.25;2.70;;;12.00;99.90;;;;;;5051469;28;20025;-59
2023/05/06 09:55:31;;;;;;;6.10;3.72;;;11.90;99.90;;;;;;5051349;28;20016;-59
2023/05/06 09:57:59;;;;;;;8.75;2.97;;;11.80;99.90;;;;;;5042990;28;20037;-59
2023/05/06 10:00:28;;;;;;;11.02;3.05;;;11.80;99.90;;;;;;5040546;28;20540;-59
2023/05/06 10:02:58;;;;;;;5.72;2.72;;;11.80;99.90;;;;;;5013326;28;20076;-59
2023/05/06 10:05:26;;;;;;;11.95;3.25;;;11.70;99.90;;;;;;5031308;28;20100;-59
2023/05/06 10:07:57;;;;;;;5.28;2.58;;;11.70;99.90;;;;;;5031130;28;20117;-60
2023/05/06 10:10:26;;;;;;;7.25;3.25;;;11.60;99.90;;;;;;5031295;28;20072;-59
2023/05/06 10:12:55;;;;;;;6.18;2.78;;;11.50;99.90;;;;;;5031085;28;20025;-59
2023/05/06 10:15:24;;;;;;;10.38;2.92;;;11.50;99.90;;;;;;5031277;28;20053;-59
2023/05/06 10:17:52;;;;;;;10.32;3.10;;;11.40;99.90;;;;;;5031096;28;20029;-59
2023/05/06 10:20:24;;;;;;;5.30;3.00;;;11.50;99.90;;;;;;5034824;28;20016;-59
2023/05/06 10:23:16;;;;;;;14.07;4.20;;;11.50;99.90;;;;;;5050467;28;20068;-59
2023/05/06 10:25:46;;;;;;;5.20;2.88;;;11.50;99.90;;;;;;5050904;28;20075;-58
2023/05/06 10:28:14;;;;;;;6.93;2.75;;;11.60;99.90;;;;;;5051320;28;20032;-59
2023/05/06 10:30:42;;;;;;;9.07;2.65;;;11.60;99.90;;;;;;5050924;28;20017;-59
2023/05/06 10:33:11;;;;;;;9.15;2.38;;;11.60;99.90;;;;;;5042027;28;20490;-58
2023/05/06 10:35:41;;;;;;;6.93;3.03;;;11.70;99.90;;;;;;5031836;28;20064;-58
2023/05/06 10:38:17;;;;;;;4.47;2.22;;;11.70;99.90;;;;;;5012847;28;20502;-59
2023/05/06 10:40:45;;;;;;;6.05;2.40;;;11.80;99.90;;;;;;5018402;28;20413;-59
2023/05/06 10:43:25;;;;;;;6.45;3.10;;;11.80;99.90;;;;;;5032834;28;20037;-59
2023/05/06 10:46:08;;;;;;;7.70;2.47;;;11.80;99.90;;;;;;5049784;28;20036;-59
2023/05/06 10:48:37;;;;;;;5.47;2.55;;;11.80;99.90;;;;;;5050085;28;20100;-59
2023/05/06 10:51:17;;;;;;;8.52;4.05;;;11.80;99.90;;;;;;5024077;28;20043;-59
2023/05/06 10:54:05;;;;;;;11.25;3.80;;;11.80;99.90;;;;;;5030667;28;20033;-59
2023/05/06 10:57:01;;;;;;;12.63;4.65;;;11.80;99.90;;;;;;5012394;28;20029;-58
2023/05/06 10:59:29;;;;;;;10.05;4.82;;;11.70;99.90;;;;;;5030165;28;20036;-58
2023/05/06 11:02:08;;;;;;;11.23;5.38;;;11.60;99.90;;;;;;5043448;28;20086;-58
2023/05/06 11:04:36;;;;;;;8.77;5.80;;;11.50;99.90;;;;;;5050004;28;20025;-59
2023/05/06 11:07:14;;;;;;;13.85;6.10;;;11.50;99.90;;;;;;5050065;28;20270;-59
2023/05/06 11:09:59;;;;;;;11.05;5.80;;;11.40;99.90;;;;;;5050129;28;20147;-59
2023/05/06 11:12:45;;;;;;;;;;;11.50;99.90;;;;;;5032060;28;20060;-58
2023/05/06 11:15:42;;;;;;;11.95;4.88;;;11.60;99.90;;;;;;5030429;28;19948;-59
2023/05/06 11:18:28;;;;;;;8.30;4.70;;;11.70;99.90;;;;;;5029936;28;20021;-59
2023/05/06 11:21:01;;;;;;;9.80;4.55;;;11.70;99.90;;;;;;5011979;28;20036;-58
2023/05/06 11:23:52;;;;;;;9.57;4.25;;;11.80;99.90;;;;;;5012033;28;20048;-59
2023/05/06 11:26:20;;;;;;;8.40;4.38;;;11.70;99.90;;;;;;5043019;28;20048;-59
2023/05/06 11:28:50;;;;;;;16.55;5.32;;;11.60;99.90;;;;;;5049635;28;20378;-59
2023/05/06 11:31:20;;;;;;;7.75;4.00;;;11.50;99.90;;;;;;5049574;28;20478;-59
2023/05/06 11:33:51;;;;;;;8.90;5.18;;;11.40;99.90;;;;;;5049345;28;20021;-59
2023/05/06 11:36:20;;;;;;;8.80;4.88;;;11.30;99.90;;;;;;5044427;28;20033;-59
2023/05/06 11:38:52;;;;;;;11.82;5.10;;;11.10;99.90;;;;;;5011910;28;20028;-59
2023/05/06 11:41:21;;;;;;;12.52;5.97;;;11.00;99.90;;;;;;5011955;28;20021;-59
2023/05/06 11:43:50;;;;;;;12.23;4.97;;;10.90;99.90;;;;;;5029259;28;20119;-59
2023/05/06 11:46:23;;;;;;;8.27;4.47;;;10.80;99.90;;;;;;5016164;28;20021;-59
2023/05/06 11:48:50;;;;;;;13.80;5.80;;;10.80;99.90;;;;;;5031397;28;20045;-59
2023/05/06 11:51:25;;;;;;;7.85;4.28;;;10.80;99.90;;;;;;5049493;28;20096;-59
2023/05/06 11:54:06;;;;;;;9.23;4.70;;;10.70;99.90;;;;;;5049203;28;20021;-59
2023/05/06 11:56:50;;;;;;;9.27;4.43;;;10.70;99.90;;;;;;5046966;28;20044;-58
2023/05/06 11:59:26;;;;;;;8.77;4.32;;;10.70;99.90;;;;;;5045218;28;20025;-59
2023/05/06 12:01:53;;;;;;;7.03;4.22;;;10.70;99.90;;;;;;5049056;28;20041;-59
2023/05/06 12:04:21;;;;;;;9.18;3.88;;;10.70;99.90;;;;;;5029801;28;20036;-59
2023/05/06 12:06:48;;;;;;;8.80;4.07;;;10.60;99.90;;;;;;5029260;28;20413;-59
2023/05/06 12:09:16;;;;;;;8.23;4.18;;;10.50;99.90;;;;;;5029770;28;20378;-58
2023/05/06 12:11:44;;;;;;;7.15;3.70;;;10.40;99.90;;;;;;5029700;28;20021;-58
2023/05/06 12:14:12;;;;;;;10.63;3.90;;;10.30;99.90;;;;;;5031566;28;20026;-58
2023/05/06 12:16:40;;;;;;;6.97;3.92;;;10.20;99.90;;;;;;5049188;28;20108;-58
2023/05/06 12:19:08;;;;;;;8.00;4.15;;;10.10;99.90;;;;;;5031246;28;20115;-58
2023/05/06 12:21:39;;;;;;;7.38;4.20;;;9.90;99.90;;;;;;5049054;28;20489;-59
2023/05/06 12:24:07;;;;;;;9.43;4.47;;;9.80;99.90;;;;;;5029349;28;20409;-58
2023/05/06 12:26:45;;;;;;;10.30;4.88;;;9.70;99.90;;;;;;5042318;28;20029;-58
2023/05/06 12:29:16;;;;;;;9.98;5.18;;;9.60;99.90;;;;;;5049299;28;20558;-58
2023/05/06 12:31:47;;;;;;;8.25;4.80;;;9.60;99.90;;;;;;5031151;28;20025;-58
2023/05/06 12:34:17;;;;;;;10.13;5.20;;;9.60;99.90;;;;;;5047905;28;20029;-58
2023/05/06 12:36:46;;;;;;;8.60;4.60;;;9.60;99.90;;;;;;5049427;28;20036;-57
2023/05/06 12:39:15;;;;;;;19.90;5.80;;;9.70;99.90;;;;;;5049394;28;20634;-58
2023/05/06 12:41:45;;;;;;;12.55;4.55;;;9.70;99.90;;;;;;5049241;28;20039;-58
2023/05/06 12:44:37;;;;;;;9.43;4.57;;;9.70;99.90;;;;;;5036033;28;20057;-59
2023/05/06 12:47:17;;;;;;;10.50;4.32;;;9.60;99.90;;;;;;5032454;28;20029;-58
2023/05/06 12:49:53;;;;;;;9.32;4.03;;;9.60;99.90;;;;;;5033531;28;20040;-57
2023/05/06 12:52:22;;;;;;;15.88;4.57;;;9.50;99.90;;;;;;5043318;28;20104;-48
2023/05/06 12:54:51;;;;;;;10.50;4.55;;;9.40;99.90;;;;;;5045948;28;20482;-58
2023/05/06 12:57:19;;;;;;;11.95;4.55;;;9.40;99.90;;;;;;5036472;28;20017;-60